Snoqualmie River: Snoqualmie Falls station

back to: Snoqualmie river
Snoqualmie Falls station Summary - (NOAA Hydrograph: SQUW1)
flood stage: 12.88 ft
Latest reading:
Wed06/19 04:25 pm 4.16 ft 1175 cfs (-84/hr)
Past 24hr max:
Tue06/18 04:30 pm 4.25 ft 1232 cfs
Forecasted crests: (published Wed 06/19/19 07:58 am)
Thu06/20 11:00 am 5.03 ft 1858 cfs
Wed06/26 11:00 pm 3.88 ft 1005 cfs
Thu06/27 11:00 pm 3.82 ft 968 cfs
Fri06/28 11:00 pm 3.67 ft 883 cfs

Snoqualmie Falls station Details

Latest Readings

Last 100 Readings:
Wed06/19 04:25 pm 4.16 ft 1175 cfs
Wed06/19 04:20 pm 4.17 ft 1182 cfs
Wed06/19 04:15 pm 4.17 ft 1182 cfs
Wed06/19 04:10 pm 4.17 ft 1182 cfs
Wed06/19 04:05 pm 4.17 ft 1182 cfs
Wed06/19 04:00 pm 4.18 ft 1188 cfs
Wed06/19 03:55 pm 4.17 ft 1182 cfs
Wed06/19 03:50 pm 4.17 ft 1182 cfs
Wed06/19 03:45 pm 4.17 ft 1182 cfs
Wed06/19 03:40 pm 4.18 ft 1188 cfs
Wed06/19 03:35 pm 4.18 ft 1188 cfs
Wed06/19 03:30 pm 4.18 ft 1188 cfs
Wed06/19 03:25 pm 4.17 ft 1182 cfs
Wed06/19 03:20 pm 4.17 ft 1182 cfs
Wed06/19 03:15 pm 4.17 ft 1182 cfs
Wed06/19 03:10 pm 4.18 ft 1188 cfs
Wed06/19 03:05 pm 4.18 ft 1188 cfs
Wed06/19 03:00 pm 4.17 ft 1182 cfs
Wed06/19 02:55 pm 4.18 ft 1188 cfs
Wed06/19 02:50 pm 4.18 ft 1188 cfs
Wed06/19 02:45 pm 4.18 ft 1188 cfs
Wed06/19 02:40 pm 4.19 ft 1194 cfs
Wed06/19 02:35 pm 4.18 ft 1188 cfs
Wed06/19 02:30 pm 4.19 ft 1194 cfs
Wed06/19 02:25 pm 4.18 ft 1188 cfs
Wed06/19 02:20 pm 4.19 ft 1194 cfs
Wed06/19 02:15 pm 4.18 ft 1188 cfs
Wed06/19 02:10 pm 4.18 ft 1188 cfs
Wed06/19 02:05 pm 4.19 ft 1194 cfs
Wed06/19 02:00 pm 4.19 ft 1194 cfs
Wed06/19 01:55 pm 4.19 ft 1194 cfs
Wed06/19 01:50 pm 4.18 ft 1188 cfs
Wed06/19 01:45 pm 4.18 ft 1188 cfs
Wed06/19 01:40 pm 4.18 ft 1188 cfs
Wed06/19 01:35 pm 4.18 ft 1188 cfs
Wed06/19 01:30 pm 4.19 ft 1194 cfs
Wed06/19 01:25 pm 4.19 ft 1194 cfs
Wed06/19 01:20 pm 4.19 ft 1194 cfs
Wed06/19 01:15 pm 4.19 ft 1194 cfs
Wed06/19 01:10 pm 4.19 ft 1194 cfs
Wed06/19 01:05 pm 4.19 ft 1194 cfs
Wed06/19 01:00 pm 4.2 ft 1200 cfs
Wed06/19 12:55 pm 4.19 ft 1194 cfs
Wed06/19 12:50 pm 4.19 ft 1194 cfs
Wed06/19 12:45 pm 4.19 ft 1194 cfs
Wed06/19 12:40 pm 4.19 ft 1194 cfs
Wed06/19 12:35 pm 4.19 ft 1194 cfs
Wed06/19 12:30 pm 4.2 ft 1200 cfs
Wed06/19 12:25 pm 4.19 ft 1194 cfs
Wed06/19 12:20 pm 4.19 ft 1194 cfs
Wed06/19 12:15 pm 4.2 ft 1200 cfs
Wed06/19 12:10 pm 4.2 ft 1200 cfs
Wed06/19 12:05 pm 4.19 ft 1194 cfs
Wed06/19 12:00 pm 4.2 ft 1200 cfs
Wed06/19 11:55 am 4.2 ft 1200 cfs
Wed06/19 11:50 am 4.19 ft 1194 cfs
Wed06/19 11:45 am 4.19 ft 1194 cfs
Wed06/19 11:40 am 4.2 ft 1200 cfs
Wed06/19 11:35 am 4.2 ft 1200 cfs
Wed06/19 11:30 am 4.19 ft 1194 cfs
Wed06/19 11:25 am 4.21 ft 1207 cfs
Wed06/19 11:20 am 4.2 ft 1200 cfs
Wed06/19 11:15 am 4.2 ft 1200 cfs
Wed06/19 11:10 am 4.2 ft 1200 cfs
Wed06/19 11:05 am 4.2 ft 1200 cfs
Wed06/19 11:00 am 4.2 ft 1200 cfs
Wed06/19 10:55 am 4.19 ft 1194 cfs
Wed06/19 10:50 am 4.19 ft 1194 cfs
Wed06/19 10:45 am 4.2 ft 1200 cfs
Wed06/19 10:40 am 4.21 ft 1207 cfs
Wed06/19 10:35 am 4.2 ft 1200 cfs
Wed06/19 10:30 am 4.2 ft 1200 cfs
Wed06/19 10:25 am 4.2 ft 1200 cfs
Wed06/19 10:20 am 4.2 ft 1200 cfs
Wed06/19 10:15 am 4.2 ft 1200 cfs
Wed06/19 10:10 am 4.2 ft 1200 cfs
Wed06/19 10:05 am 4.19 ft 1194 cfs
Wed06/19 10:00 am 4.2 ft 1200 cfs
Wed06/19 09:55 am 4.2 ft 1200 cfs
Wed06/19 09:50 am 4.2 ft 1200 cfs
Wed06/19 09:45 am 4.19 ft 1194 cfs
Wed06/19 09:40 am 4.2 ft 1200 cfs
Wed06/19 09:35 am 4.2 ft 1200 cfs
Wed06/19 09:30 am 4.19 ft 1194 cfs
Wed06/19 09:25 am 4.19 ft 1194 cfs
Wed06/19 09:20 am 4.2 ft 1200 cfs
Wed06/19 09:15 am 4.2 ft 1200 cfs
Wed06/19 09:10 am 4.2 ft 1200 cfs
Wed06/19 09:05 am 4.2 ft 1200 cfs
Wed06/19 09:00 am 4.2 ft 1200 cfs
Wed06/19 08:55 am 4.19 ft 1194 cfs
Wed06/19 08:50 am 4.2 ft 1200 cfs
Wed06/19 08:45 am 4.19 ft 1194 cfs
Wed06/19 08:40 am 4.2 ft 1200 cfs
Wed06/19 08:35 am 4.2 ft 1200 cfs
Wed06/19 08:30 am 4.2 ft 1200 cfs
Wed06/19 08:25 am 4.2 ft 1200 cfs
Wed06/19 08:20 am 4.2 ft 1200 cfs
Wed06/19 08:15 am 4.21 ft 1207 cfs
Wed06/19 08:10 am 4.2 ft 1200 cfs

Latest Forecasts

Currently Forecasted Readings:
Wed06/19 11:00 am 4.15 ft 1170 cfs
Wed06/19 05:00 pm 4.1 ft 1137 cfs
Wed06/19 11:00 pm 4.41 ft 1348 cfs
Thu06/20 05:00 am 4.87 ft 1722 cfs
Thu06/20 11:00 am 5.03 ft 1858 cfs
Thu06/20 05:00 pm 4.91 ft 1755 cfs
Thu06/20 11:00 pm 4.7 ft 1578 cfs
Fri06/21 05:00 am 4.47 ft 1394 cfs
Fri06/21 11:00 am 4.26 ft 1241 cfs
Fri06/21 05:00 pm 4.08 ft 1126 cfs
Fri06/21 11:00 pm 3.93 ft 1035 cfs
Sat06/22 05:00 am 3.83 ft 971 cfs
Sat06/22 11:00 am 3.75 ft 926 cfs
Sat06/22 05:00 pm 3.69 ft 892 cfs
Sat06/22 11:00 pm 3.64 ft 864 cfs
Sun06/23 05:00 am 3.6 ft 839 cfs
Sun06/23 11:00 am 3.55 ft 815 cfs
Sun06/23 05:00 pm 3.52 ft 796 cfs
Sun06/23 11:00 pm 3.49 ft 779 cfs
Mon06/24 05:00 am 3.45 ft 761 cfs
Mon06/24 11:00 am 3.42 ft 745 cfs
Mon06/24 05:00 pm 3.4 ft 731 cfs
Mon06/24 11:00 pm 3.37 ft 716 cfs
Tue06/25 05:00 am 3.34 ft 703 cfs
Tue06/25 11:00 am 3.31 ft 689 cfs
Tue06/25 05:00 pm 3.38 ft 725 cfs
Tue06/25 11:00 pm 3.53 ft 801 cfs
Wed06/26 05:00 am 3.64 ft 862 cfs
Wed06/26 11:00 am 3.68 ft 887 cfs
Wed06/26 05:00 pm 3.74 ft 920 cfs
Wed06/26 11:00 pm 3.88 ft 1005 cfs
Thu06/27 05:00 am 3.87 ft 997 cfs
Thu06/27 11:00 am 3.73 ft 914 cfs
Thu06/27 05:00 pm 3.73 ft 916 cfs
Thu06/27 11:00 pm 3.82 ft 968 cfs
Fri06/28 05:00 am 3.79 ft 949 cfs
Fri06/28 11:00 am 3.67 ft 879 cfs
Fri06/28 05:00 pm 3.65 ft 869 cfs
Fri06/28 11:00 pm 3.67 ft 883 cfs
Sat06/29 05:00 am 3.63 ft 859 cfs

Snoqualmie River flood gauge data supplied by the
National Weather Service Northwest River Forecast Center.

Sign up for Floodzilla alerts.